Kezdőlap
METAR-TAF:

METAR-TAF

Repülőterek :

Reus, Spanyolország

földrajzi szélesség: 41-09N, földrajzi hosszúság: 001-10E, magasság: 71 m

Jelenlegi meteorológiai megfigyelések

A jelentés 39 perccel ezelõtt készült, 15:00 UTC
Dél-délnyugati szél 7 kt, déli és délnyugati között változik
Hőmérséklet 18°C
Páratartalom 49%
Légköri nyomás 1012 hPa
Látótávolság 10 km, vagy több
felhőtlen 1500 m magasságban, és nincs gomolyfelhõ

METAR: LERS 151500Z 21007KT 170V230 CAVOK 18/07 Q1012

Idő: 16:39 (15:39 UTC)

Előrejelzés

A jelentés 1 órával és 39 perccel ezelõtt készült, 14:00 UTC
Az előrejelzés 15-én 15 óra UTC és 16-én 15 óra UTC között érvényes
Különbözõ irányokból fújó szél 4 kt
Látótávolság 10 km, vagy több
Kevés felhő 4000 lábon

TAF: LERS 151400Z 1515/1615 VRB04KT 9999 FEW040 TX16/1613Z TN06/1606Z

Meteorológiai megfigyelések és előrejelzések több, mint 4000 repülőtéren (METAR és TAF jelentéseket).

A térképen piros és sárga pontok jelzik az elérhető meteorológiai állomásokat.

Mozgassa az egeret a pont fölött, hogy megjelenjen az állomás neve.

Azután kattintson az időjárási megfigyelések és előrejelzések megtekintéséhez.

A térkép megváltoztatása: kattintson a fekete keresztel jelölt zöld gombra ráközelítéshez, a vonallal jelölt zöld gombra távolításhoz, vagy a zöld nyilakra a szomszédos térképek eléréséhez.


METAR-TAF: